ADDS METAR Data INFO
IDs: Format: Raw Decoded Include TAF

Data at: 0448 UTC 21 Feb 2018

KTBR 201515Z AUTO 00000KT 10SM SCT007 OVC050 21/20 A3044 RMK AO2 T02060201
KTBR 201455Z AUTO 00000KT 10SM BKN005 OVC050 20/ A3044 RMK AO2 T0197
KTBR 201435Z AUTO 00000KT 10SM OVC003 19/ A3044 RMK AO2 T0190
KTBR 201415Z AUTO 09003KT 7SM OVC003 19/ A3043 RMK AO2 T0186
KTBR 201355Z AUTO 00000KT 5SM HZ OVC003 18/ A3043 RMK AO2 T0181
KTBR 201335Z AUTO 00000KT 1SM BR OVC003 18/ A3042 RMK AO2 T0175
KTBR 201315Z AUTO 00000KT 1/4SM FG OVC003 17/ A3042 RMK AO2 T0171
KTBR 201255Z AUTO 00000KT M1/4SM FG OVC003 17/ A3041 RMK AO2 T0167
KTBR 201235Z AUTO 00000KT M1/4SM FG OVC003 17/ A3041 RMK AO2 T0165
KTBR 201215Z AUTO 00000KT M1/4SM FG OVC003 16/ A3040 RMK AO2 T0164
KTBR 201155Z AUTO 00000KT 1/4SM FG OVC003 17/ A3040 RMK AO2 T0165 10170 20152
KTBR 201135Z AUTO 00000KT 1/2SM FG OVC003 17/ A3040 RMK AO2 T0165
KTBR 201115Z AUTO 00000KT 1/4SM FG OVC003 17/ A3039 RMK AO2 T0165
KTBR 201055Z AUTO 00000KT 1/4SM FG OVC003 16/ A3039 RMK AO2 T0164
KTBR 201035Z AUTO 00000KT 1/4SM FG OVC003 17/ A3039 RMK AO2 T0165
KTBR 201015Z AUTO 00000KT 1/4SM FG OVC003 17/ A3038 RMK AO2 T0165
KTBR 200955Z AUTO 00000KT 1/4SM FG OVC003 17/ A3038 RMK AO2 T0165
KTBR 200935Z AUTO 00000KT 1/4SM FG OVC003 17/ A3037 RMK AO2 T0166
KTBR 200915Z AUTO 00000KT 1/4SM FG OVC003 17/ A3037 RMK AO2 T0166
KTBR 200855Z AUTO 00000KT 1/4SM FG OVC003 17/ A3036 RMK AO2 T0167
KTBR 200835Z AUTO 00000KT 1/4SM FG OVC003 17/ A3036 RMK AO2 T0167
KTBR 200815Z AUTO 00000KT 1/4SM FG OVC003 17/ A3036 RMK AO2 T0167
KTBR 200755Z AUTO 00000KT 1/4SM FG OVC003 17/ A3036 RMK AO2 T0169
KTBR 200735Z AUTO 00000KT 1/4SM FG OVC003 17/ A3037 RMK AO2 T0169
KTBR 200715Z AUTO 00000KT M1/4SM FG OVC003 17/ A3037 RMK AO2 T0166
KTBR 200655Z AUTO 00000KT 1/4SM FG OVC003 16/ A3037 RMK AO2 T0164
KTBR 200635Z AUTO 00000KT 3/4SM BR OVC003 16/ A3037 RMK AO2 T0158
KTBR 200615Z AUTO 00000KT 1 1/4SM BR BKN003 16/ A3037 RMK AO2 T0156
KTBR 200555Z AUTO 00000KT 1 1/4SM BR SCT003 16/ A3037 RMK AO2 VIS 1/4V5 T0155 10230 20155 402760153
KTBR 200535Z AUTO 00000KT 2SM BR CLR 16/ A3037 RMK AO2 T0155
KTBR 200515Z AUTO 00000KT 3SM BR CLR 16/ A3037 RMK AO2 T0156
KTBR 200455Z AUTO 00000KT 10SM CLR 17/ A3037 RMK AO2 T0165
KTBR 200435Z AUTO 00000KT 10SM CLR 17/ A3037 RMK AO2 T0165
KTBR 200415Z AUTO 00000KT 10SM CLR 17/ A3037 RMK AO2 T0170
KTBR 200355Z AUTO 00000KT 10SM CLR 18/ A3037 RMK AO2 T0179
KTBR 200335Z AUTO 00000KT 10SM CLR 19/ A3036 RMK AO2 T0185
KTBR 200315Z AUTO 00000KT 10SM CLR 19/19 A3036 RMK AO2 T01910191
KTBR 200255Z AUTO 00000KT 10SM CLR 19/17 A3036 RMK AO2 T01920165
KTBR 200235Z AUTO 14003KT 10SM CLR 20/16 A3035 RMK AO2 T01970161
KTBR 200215Z AUTO 14003KT 10SM CLR 20/16 A3035 RMK AO2 T02000157
KTBR 200155Z AUTO 14003KT 10SM CLR 20/16 A3035 RMK AO2 T02040155
KTBR 200135Z AUTO 14003KT 10SM CLR 21/15 A3035 RMK AO2 T02060149
KTBR 200115Z AUTO 14003KT 10SM CLR 21/14 A3034 RMK AO2 T02090139
KTBR 200055Z AUTO 15003KT 10SM CLR 21/14 A3034 RMK AO2 T02130137
KTBR 200035Z AUTO 13003KT 10SM CLR 22/14 A3033 RMK AO2 T02160137
KTBR 200015Z AUTO 15004KT 10SM CLR 23/14 A3032 RMK AO2 T02250137
KTBR 192355Z AUTO 14003KT 10SM CLR 23/14 A3032 RMK AO2 T02310137 10276 20231
KTBR 192335Z AUTO 15006KT 10SM CLR 24/14 A3031 RMK AO2 T02380137
KTBR 192315Z AUTO 15007KT 10SM CLR 24/14 A3031 RMK AO2 T02400144
KTBR 192255Z AUTO 16006KT 10SM CLR 25/14 A3030 RMK AO2 T02500142
KTBR 192235Z AUTO 17009KT 10SM CLR 26/14 A3030 RMK AO2 T02560141
KTBR 192215Z AUTO 16006KT 10SM CLR 26/14 A3030 RMK AO2 T02610138
KTBR 192155Z AUTO 16008KT 10SM CLR 27/13 A3029 RMK AO2 T02650131
KTBR 192135Z AUTO 17011KT 10SM CLR 27/13 A3029 RMK AO2 T02680128
KTBR 192115Z AUTO 19008KT 10SM CLR 26/13 A3029 RMK AO2 T02610128
KTBR 192055Z AUTO 18012G15KT 10SM SCT045 SCT065 27/13 A3030 RMK AO2 T02720125
KTBR 192035Z AUTO 15010KT 10SM BKN045 BKN050 BKN060 28/12 A3030 RMK AO2 T02750124
KTBR 192015Z AUTO 15007KT 10SM SCT043 BKN050 BKN060 26/13 A3030 RMK AO2 T02620132
KTBR 191955Z AUTO 18009KT 10SM SCT041 BKN050 27/13 A3030 RMK AO2 T02730127
KTBR 191935Z AUTO 17007KT 10SM SCT037 SCT055 27/14 A3031 RMK AO2 T02680136
KTBR 191915Z AUTO 14006KT 10SM SCT037 SCT043 27/14 A3032 RMK AO2 T02700140
KTBR 191855Z AUTO 23005KT 10SM SCT032 SCT040 26/15 A3033 RMK AO2 T02570146
KTBR 191835Z AUTO 17006KT 10SM SCT029 25/15 A3034 RMK AO2 T02520147
KTBR 191815Z AUTO 14003KT 10SM SCT025 25/15 A3035 RMK AO2 T02520152
KTBR 191755Z AUTO 16006KT 10SM SCT023 25/15 A3036 RMK AO2 T02450151 10248 20153
KTBR 191735Z AUTO 17008KT 120V210 10SM BKN021 24/15 A3037 RMK AO2 T02360154
KTBR 191715Z AUTO 19004KT 10SM SCT019 23/15 A3038 RMK AO2 T02330153
KTBR 191655Z AUTO 21009KT 10SM SCT017 23/16 A3038 RMK AO2 T02340155